sensor_id;sensor_type;location;lat;lon;timestamp;P1;durP1;ratioP1;P2;durP2;ratioP2
59607;SDS011;45426;44.726;10.390;2023-07-29T00:00:39;7.50;;;3.60;;
59607;SDS011;45426;44.726;10.390;2023-07-29T00:03:05;6.78;;;2.88;;
59607;SDS011;45426;44.726;10.390;2023-07-29T00:05:31;7.85;;;3.15;;
59607;SDS011;45426;44.726;10.390;2023-07-29T00:07:56;7.28;;;3.10;;
59607;SDS011;45426;44.726;10.390;2023-07-29T00:10:22;9.75;;;3.67;;
59607;SDS011;45426;44.726;10.390;2023-07-29T00:12:47;4.68;;;2.80;;
59607;SDS011;45426;44.726;10.390;2023-07-29T00:15:13;9.18;;;3.05;;
59607;SDS011;45426;44.726;10.390;2023-07-29T00:17:38;7.65;;;3.08;;
59607;SDS011;45426;44.726;10.390;2023-07-29T00:20:04;6.60;;;2.90;;
59607;SDS011;45426;44.726;10.390;2023-07-29T00:22:31;7.00;;;3.00;;
59607;SDS011;45426;44.726;10.390;2023-07-29T00:24:56;6.55;;;3.00;;
59607;SDS011;45426;44.726;10.390;2023-07-29T00:27:23;7.72;;;3.13;;
59607;SDS011;45426;44.726;10.390;2023-07-29T00:29:48;5.85;;;2.85;;
59607;SDS011;45426;44.726;10.390;2023-07-29T00:32:14;9.07;;;3.25;;
59607;SDS011;45426;44.726;10.390;2023-07-29T00:34:40;8.80;;;3.45;;
59607;SDS011;45426;44.726;10.390;2023-07-29T00:37:05;6.63;;;3.10;;
59607;SDS011;45426;44.726;10.390;2023-07-29T00:39:31;6.85;;;3.40;;
59607;SDS011;45426;44.726;10.390;2023-07-29T00:41:57;6.80;;;3.08;;
59607;SDS011;45426;44.726;10.390;2023-07-29T00:44:22;6.32;;;3.22;;
59607;SDS011;45426;44.726;10.390;2023-07-29T00:46:49;9.57;;;3.22;;
59607;SDS011;45426;44.726;10.390;2023-07-29T00:49:17;7.22;;;3.00;;
59607;SDS011;45426;44.726;10.390;2023-07-29T00:51:42;5.75;;;3.10;;
59607;SDS011;45426;44.726;10.390;2023-07-29T00:54:08;7.72;;;3.38;;
59607;SDS011;45426;44.726;10.390;2023-07-29T00:56:33;8.10;;;3.13;;
59607;SDS011;45426;44.726;10.390;2023-07-29T00:58:59;6.55;;;3.08;;
59607;SDS011;45426;44.726;10.390;2023-07-29T01:01:27;7.97;;;3.20;;
59607;SDS011;45426;44.726;10.390;2023-07-29T01:03:53;6.47;;;3.15;;
59607;SDS011;45426;44.726;10.390;2023-07-29T01:06:36;8.63;;;3.17;;
59607;SDS011;45426;44.726;10.390;2023-07-29T01:12:24;8.23;;;3.17;;
59607;SDS011;45426;44.726;10.390;2023-07-29T01:17:32;7.28;;;3.30;;
59607;SDS011;45426;44.726;10.390;2023-07-29T01:20:02;6.10;;;3.10;;
59607;SDS011;45426;44.726;10.390;2023-07-29T01:22:33;5.78;;;3.30;;
59607;SDS011;45426;44.726;10.390;2023-07-29T01:24:59;6.75;;;3.20;;
59607;SDS011;45426;44.726;10.390;2023-07-29T01:27:25;6.80;;;3.13;;
59607;SDS011;45426;44.726;10.390;2023-07-29T01:29:51;6.07;;;3.60;;
59607;SDS011;45426;44.726;10.390;2023-07-29T01:37:42;9.10;;;3.38;;
59607;SDS011;45426;44.726;10.390;2023-07-29T01:40:12;6.30;;;3.13;;
59607;SDS011;45426;44.726;10.390;2023-07-29T01:42:38;5.97;;;3.03;;
59607;SDS011;45426;44.726;10.390;2023-07-29T01:45:04;5.68;;;3.25;;
59607;SDS011;45426;44.726;10.390;2023-07-29T01:47:30;8.20;;;3.40;;
59607;SDS011;45426;44.726;10.390;2023-07-29T01:49:55;6.32;;;3.05;;
59607;SDS011;45426;44.726;10.390;2023-07-29T01:52:21;6.13;;;3.10;;
59607;SDS011;45426;44.726;10.390;2023-07-29T01:54:46;6.40;;;3.42;;
59607;SDS011;45426;44.726;10.390;2023-07-29T01:57:12;6.68;;;3.35;;
59607;SDS011;45426;44.726;10.390;2023-07-29T01:59:37;6.68;;;3.25;;
59607;SDS011;45426;44.726;10.390;2023-07-29T02:02:02;5.38;;;3.13;;
59607;SDS011;45426;44.726;10.390;2023-07-29T02:04:28;6.85;;;3.25;;
59607;SDS011;45426;44.726;10.390;2023-07-29T02:06:53;5.07;;;3.50;;
59607;SDS011;45426;44.726;10.390;2023-07-29T02:09:20;7.32;;;3.35;;
59607;SDS011;45426;44.726;10.390;2023-07-29T02:11:45;8.30;;;3.25;;
59607;SDS011;45426;44.726;10.390;2023-07-29T02:14:10;6.28;;;3.25;;
59607;SDS011;45426;44.726;10.390;2023-07-29T02:16:36;7.15;;;3.28;;
59607;SDS011;45426;44.726;10.390;2023-07-29T02:19:02;7.57;;;3.90;;
59607;SDS011;45426;44.726;10.390;2023-07-29T02:21:28;7.43;;;4.00;;
59607;SDS011;45426;44.726;10.390;2023-07-29T02:23:53;9.65;;;4.10;;
59607;SDS011;45426;44.726;10.390;2023-07-29T02:26:19;9.57;;;4.07;;
59607;SDS011;45426;44.726;10.390;2023-07-29T02:28:44;8.18;;;4.00;;
59607;SDS011;45426;44.726;10.390;2023-07-29T02:33:43;7.13;;;4.25;;
59607;SDS011;45426;44.726;10.390;2023-07-29T02:36:09;10.32;;;4.85;;
59607;SDS011;45426;44.726;10.390;2023-07-29T02:38:34;10.82;;;5.60;;
59607;SDS011;45426;44.726;10.390;2023-07-29T02:41:00;8.15;;;4.40;;
59607;SDS011;45426;44.726;10.390;2023-07-29T02:43:25;8.60;;;4.50;;
59607;SDS011;45426;44.726;10.390;2023-07-29T02:45:50;10.48;;;4.57;;
59607;SDS011;45426;44.726;10.390;2023-07-29T02:48:16;10.38;;;5.00;;
59607;SDS011;45426;44.726;10.390;2023-07-29T02:50:41;7.47;;;4.30;;
59607;SDS011;45426;44.726;10.390;2023-07-29T02:53:07;8.40;;;4.00;;
59607;SDS011;45426;44.726;10.390;2023-07-29T02:55:32;7.63;;;3.90;;
59607;SDS011;45426;44.726;10.390;2023-07-29T02:57:57;9.65;;;4.03;;
59607;SDS011;45426;44.726;10.390;2023-07-29T03:00:23;7.28;;;4.10;;
59607;SDS011;45426;44.726;10.390;2023-07-29T03:02:49;11.45;;;4.50;;
59607;SDS011;45426;44.726;10.390;2023-07-29T03:05:15;7.68;;;4.07;;
59607;SDS011;45426;44.726;10.390;2023-07-29T03:07:40;7.13;;;4.00;;
59607;SDS011;45426;44.726;10.390;2023-07-29T03:10:06;10.80;;;4.50;;
59607;SDS011;45426;44.726;10.390;2023-07-29T03:12:31;10.48;;;4.20;;
59607;SDS011;45426;44.726;10.390;2023-07-29T03:14:57;10.32;;;4.45;;
59607;SDS011;45426;44.726;10.390;2023-07-29T03:17:22;7.97;;;4.22;;
59607;SDS011;45426;44.726;10.390;2023-07-29T03:19:48;9.02;;;4.05;;
59607;SDS011;45426;44.726;10.390;2023-07-29T03:22:13;8.23;;;4.35;;
59607;SDS011;45426;44.726;10.390;2023-07-29T03:24:38;8.90;;;4.35;;
59607;SDS011;45426;44.726;10.390;2023-07-29T03:27:04;9.27;;;4.15;;
59607;SDS011;45426;44.726;10.390;2023-07-29T03:29:30;11.73;;;4.53;;
59607;SDS011;45426;44.726;10.390;2023-07-29T03:31:55;8.95;;;4.57;;
59607;SDS011;45426;44.726;10.390;2023-07-29T03:34:21;9.73;;;4.80;;
59607;SDS011;45426;44.726;10.390;2023-07-29T03:36:46;10.38;;;5.60;;
59607;SDS011;45426;44.726;10.390;2023-07-29T03:39:13;8.55;;;4.50;;
59607;SDS011;45426;44.726;10.390;2023-07-29T03:41:39;9.63;;;4.68;;
59607;SDS011;45426;44.726;10.390;2023-07-29T03:44:04;7.80;;;4.63;;
59607;SDS011;45426;44.726;10.390;2023-07-29T03:46:30;7.68;;;4.30;;
59607;SDS011;45426;44.726;10.390;2023-07-29T03:48:56;8.15;;;4.15;;
59607;SDS011;45426;44.726;10.390;2023-07-29T03:51:22;9.93;;;4.30;;
59607;SDS011;45426;44.726;10.390;2023-07-29T03:53:49;9.88;;;4.55;;
59607;SDS011;45426;44.726;10.390;2023-07-29T03:56:15;11.30;;;5.20;;
59607;SDS011;45426;44.726;10.390;2023-07-29T03:58:40;9.82;;;4.15;;
59607;SDS011;45426;44.726;10.390;2023-07-29T04:01:05;7.20;;;4.25;;
59607;SDS011;45426;44.726;10.390;2023-07-29T04:03:32;8.30;;;4.30;;
59607;SDS011;45426;44.726;10.390;2023-07-29T04:05:59;10.73;;;4.32;;
59607;SDS011;45426;44.726;10.390;2023-07-29T04:08:24;8.25;;;4.38;;
59607;SDS011;45426;44.726;10.390;2023-07-29T04:10:50;8.10;;;4.30;;
59607;SDS011;45426;44.726;10.390;2023-07-29T04:13:15;9.50;;;4.60;;
59607;SDS011;45426;44.726;10.390;2023-07-29T04:15:41;6.82;;;4.22;;
59607;SDS011;45426;44.726;10.390;2023-07-29T04:18:06;8.60;;;4.45;;
59607;SDS011;45426;44.726;10.390;2023-07-29T04:20:31;9.93;;;4.60;;
59607;SDS011;45426;44.726;10.390;2023-07-29T04:22:58;8.63;;;4.40;;
59607;SDS011;45426;44.726;10.390;2023-07-29T04:25:24;8.38;;;4.30;;
59607;SDS011;45426;44.726;10.390;2023-07-29T04:27:49;9.13;;;4.70;;
59607;SDS011;45426;44.726;10.390;2023-07-29T04:30:15;10.32;;;4.80;;
59607;SDS011;45426;44.726;10.390;2023-07-29T04:32:40;9.73;;;4.35;;
59607;SDS011;45426;44.726;10.390;2023-07-29T04:35:07;10.25;;;4.55;;
59607;SDS011;45426;44.726;10.390;2023-07-29T04:37:33;10.52;;;4.60;;
59607;SDS011;45426;44.726;10.390;2023-07-29T04:39:58;9.25;;;4.68;;
59607;SDS011;45426;44.726;10.390;2023-07-29T04:42:24;9.75;;;4.40;;
59607;SDS011;45426;44.726;10.390;2023-07-29T04:44:49;9.63;;;4.47;;
59607;SDS011;45426;44.726;10.390;2023-07-29T04:47:15;8.60;;;4.53;;
59607;SDS011;45426;44.726;10.390;2023-07-29T04:49:40;10.73;;;5.03;;
59607;SDS011;45426;44.726;10.390;2023-07-29T04:52:06;9.00;;;4.68;;
59607;SDS011;45426;44.726;10.390;2023-07-29T04:54:31;8.85;;;4.57;;
59607;SDS011;45426;44.726;10.390;2023-07-29T04:56:57;12.02;;;4.90;;
59607;SDS011;45426;44.726;10.390;2023-07-29T04:59:22;10.38;;;4.72;;
59607;SDS011;45426;44.726;10.390;2023-07-29T05:01:48;9.98;;;4.40;;
59607;SDS011;45426;44.726;10.390;2023-07-29T05:04:14;9.63;;;4.72;;
59607;SDS011;45426;44.726;10.390;2023-07-29T05:06:40;9.25;;;4.50;;
59607;SDS011;45426;44.726;10.390;2023-07-29T05:09:15;8.93;;;4.78;;
59607;SDS011;45426;44.726;10.390;2023-07-29T05:11:42;8.23;;;4.45;;
59607;SDS011;45426;44.726;10.390;2023-07-29T05:14:10;8.95;;;4.50;;
59607;SDS011;45426;44.726;10.390;2023-07-29T05:16:36;7.28;;;4.07;;
59607;SDS011;45426;44.726;10.390;2023-07-29T05:19:02;11.25;;;4.50;;
59607;SDS011;45426;44.726;10.390;2023-07-29T05:21:27;10.43;;;4.30;;
59607;SDS011;45426;44.726;10.390;2023-07-29T05:23:53;10.88;;;4.40;;
59607;SDS011;45426;44.726;10.390;2023-07-29T05:26:18;9.27;;;5.00;;
59607;SDS011;45426;44.726;10.390;2023-07-29T05:28:43;8.50;;;4.40;;
59607;SDS011;45426;44.726;10.390;2023-07-29T05:31:09;12.85;;;5.35;;
59607;SDS011;45426;44.726;10.390;2023-07-29T05:33:34;10.07;;;4.80;;
59607;SDS011;45426;44.726;10.390;2023-07-29T05:36:01;8.88;;;4.68;;
59607;SDS011;45426;44.726;10.390;2023-07-29T05:38:26;9.07;;;4.28;;
59607;SDS011;45426;44.726;10.390;2023-07-29T05:40:52;9.88;;;4.60;;
59607;SDS011;45426;44.726;10.390;2023-07-29T05:43:17;13.35;;;4.68;;
59607;SDS011;45426;44.726;10.390;2023-07-29T05:45:43;15.73;;;4.70;;
59607;SDS011;45426;44.726;10.390;2023-07-29T05:48:08;9.68;;;4.47;;
59607;SDS011;45426;44.726;10.390;2023-07-29T05:50:33;11.02;;;4.68;;
59607;SDS011;45426;44.726;10.390;2023-07-29T05:52:59;9.25;;;4.68;;
59607;SDS011;45426;44.726;10.390;2023-07-29T05:55:24;8.13;;;4.35;;
59607;SDS011;45426;44.726;10.390;2023-07-29T05:57:50;10.82;;;4.65;;
59607;SDS011;45426;44.726;10.390;2023-07-29T06:00:15;8.00;;;4.22;;
59607;SDS011;45426;44.726;10.390;2023-07-29T06:02:41;9.02;;;4.30;;
59607;SDS011;45426;44.726;10.390;2023-07-29T06:05:06;8.55;;;4.15;;
59607;SDS011;45426;44.726;10.390;2023-07-29T06:07:32;11.15;;;4.72;;
59607;SDS011;45426;44.726;10.390;2023-07-29T06:09:59;9.20;;;4.53;;
59607;SDS011;45426;44.726;10.390;2023-07-29T06:12:24;16.15;;;6.93;;
59607;SDS011;45426;44.726;10.390;2023-07-29T06:14:50;12.38;;;4.97;;
59607;SDS011;45426;44.726;10.390;2023-07-29T06:17:15;9.38;;;4.57;;
59607;SDS011;45426;44.726;10.390;2023-07-29T06:19:41;12.77;;;4.63;;
59607;SDS011;45426;44.726;10.390;2023-07-29T06:22:06;9.88;;;4.43;;
59607;SDS011;45426;44.726;10.390;2023-07-29T06:24:32;8.57;;;4.65;;
59607;SDS011;45426;44.726;10.390;2023-07-29T06:26:58;10.63;;;4.10;;
59607;SDS011;45426;44.726;10.390;2023-07-29T06:29:23;7.38;;;4.10;;
59607;SDS011;45426;44.726;10.390;2023-07-29T06:31:49;11.35;;;4.32;;
59607;SDS011;45426;44.726;10.390;2023-07-29T06:34:16;10.07;;;3.85;;
59607;SDS011;45426;44.726;10.390;2023-07-29T06:36:42;8.88;;;4.32;;
59607;SDS011;45426;44.726;10.390;2023-07-29T06:39:07;8.85;;;4.20;;
59607;SDS011;45426;44.726;10.390;2023-07-29T06:41:33;9.45;;;4.28;;
59607;SDS011;45426;44.726;10.390;2023-07-29T06:43:58;11.00;;;4.40;;
59607;SDS011;45426;44.726;10.390;2023-07-29T06:46:24;10.43;;;4.47;;
59607;SDS011;45426;44.726;10.390;2023-07-29T06:48:50;8.25;;;4.57;;
59607;SDS011;45426;44.726;10.390;2023-07-29T06:51:15;8.75;;;4.10;;
59607;SDS011;45426;44.726;10.390;2023-07-29T06:53:41;11.43;;;4.10;;
59607;SDS011;45426;44.726;10.390;2023-07-29T06:56:06;10.10;;;4.18;;
59607;SDS011;45426;44.726;10.390;2023-07-29T06:58:31;7.05;;;3.90;;
59607;SDS011;45426;44.726;10.390;2023-07-29T07:00:57;9.60;;;4.10;;
59607;SDS011;45426;44.726;10.390;2023-07-29T07:03:22;7.30;;;3.88;;
59607;SDS011;45426;44.726;10.390;2023-07-29T07:05:48;10.95;;;4.18;;
59607;SDS011;45426;44.726;10.390;2023-07-29T07:08:13;8.98;;;3.72;;
59607;SDS011;45426;44.726;10.390;2023-07-29T07:10:39;9.10;;;3.58;;
59607;SDS011;45426;44.726;10.390;2023-07-29T07:13:04;8.30;;;3.35;;
59607;SDS011;45426;44.726;10.390;2023-07-29T07:15:32;10.13;;;3.67;;
59607;SDS011;45426;44.726;10.390;2023-07-29T07:17:58;8.35;;;3.20;;
59607;SDS011;45426;44.726;10.390;2023-07-29T07:20:23;7.85;;;3.15;;
59607;SDS011;45426;44.726;10.390;2023-07-29T07:22:49;6.18;;;3.10;;
59607;SDS011;45426;44.726;10.390;2023-07-29T07:25:14;7.07;;;3.30;;
59607;SDS011;45426;44.726;10.390;2023-07-29T07:27:40;6.47;;;2.78;;
59607;SDS011;45426;44.726;10.390;2023-07-29T07:30:05;7.57;;;2.85;;
59607;SDS011;45426;44.726;10.390;2023-07-29T07:32:31;4.45;;;2.60;;
59607;SDS011;45426;44.726;10.390;2023-07-29T07:34:57;6.32;;;2.75;;
59607;SDS011;45426;44.726;10.390;2023-07-29T07:37:22;6.75;;;2.70;;
59607;SDS011;45426;44.726;10.390;2023-07-29T07:39:48;5.47;;;2.40;;
59607;SDS011;45426;44.726;10.390;2023-07-29T07:42:13;6.10;;;2.40;;
59607;SDS011;45426;44.726;10.390;2023-07-29T07:44:39;7.82;;;2.90;;
59607;SDS011;45426;44.726;10.390;2023-07-29T07:47:04;6.18;;;2.60;;
59607;SDS011;45426;44.726;10.390;2023-07-29T07:49:30;5.28;;;2.70;;
59607;SDS011;45426;44.726;10.390;2023-07-29T07:51:56;6.55;;;3.03;;
59607;SDS011;45426;44.726;10.390;2023-07-29T07:54:21;6.18;;;2.90;;
59607;SDS011;45426;44.726;10.390;2023-07-29T07:56:47;5.90;;;2.65;;
59607;SDS011;45426;44.726;10.390;2023-07-29T07:59:12;5.22;;;3.20;;
59607;SDS011;45426;44.726;10.390;2023-07-29T08:01:38;6.65;;;3.10;;
59607;SDS011;45426;44.726;10.390;2023-07-29T08:04:04;8.07;;;2.75;;
59607;SDS011;45426;44.726;10.390;2023-07-29T08:06:30;6.60;;;2.92;;
59607;SDS011;45426;44.726;10.390;2023-07-29T08:08:57;5.38;;;2.90;;
59607;SDS011;45426;44.726;10.390;2023-07-29T08:11:22;4.60;;;2.80;;
59607;SDS011;45426;44.726;10.390;2023-07-29T08:13:50;7.38;;;3.10;;
59607;SDS011;45426;44.726;10.390;2023-07-29T08:16:16;3.72;;;2.80;;
59607;SDS011;45426;44.726;10.390;2023-07-29T08:18:41;10.52;;;3.20;;
59607;SDS011;45426;44.726;10.390;2023-07-29T08:21:07;7.07;;;3.22;;
59607;SDS011;45426;44.726;10.390;2023-07-29T08:23:33;6.47;;;3.30;;
59607;SDS011;45426;44.726;10.390;2023-07-29T08:26:00;7.35;;;2.92;;
59607;SDS011;45426;44.726;10.390;2023-07-29T08:28:31;6.07;;;2.95;;
59607;SDS011;45426;44.726;10.390;2023-07-29T08:30:58;5.13;;;2.90;;
59607;SDS011;45426;44.726;10.390;2023-07-29T08:33:24;5.88;;;2.60;;
59607;SDS011;45426;44.726;10.390;2023-07-29T08:35:50;7.45;;;2.90;;
59607;SDS011;45426;44.726;10.390;2023-07-29T08:38:16;8.35;;;3.25;;
59607;SDS011;45426;44.726;10.390;2023-07-29T08:44:02;8.45;;;3.15;;
59607;SDS011;45426;44.726;10.390;2023-07-29T08:46:31;5.30;;;3.10;;
59607;SDS011;45426;44.726;10.390;2023-07-29T08:48:57;4.95;;;3.20;;
59607;SDS011;45426;44.726;10.390;2023-07-29T08:51:24;6.55;;;3.40;;
59607;SDS011;45426;44.726;10.390;2023-07-29T08:53:50;6.15;;;2.80;;
59607;SDS011;45426;44.726;10.390;2023-07-29T08:56:16;7.97;;;3.25;;
59607;SDS011;45426;44.726;10.390;2023-07-29T08:58:42;8.48;;;3.33;;
59607;SDS011;45426;44.726;10.390;2023-07-29T09:01:08;6.30;;;2.90;;
59607;SDS011;45426;44.726;10.390;2023-07-29T09:03:34;7.25;;;2.80;;
59607;SDS011;45426;44.726;10.390;2023-07-29T09:05:59;8.65;;;3.60;;
59607;SDS011;45426;44.726;10.390;2023-07-29T09:08:26;7.53;;;2.97;;
59607;SDS011;45426;44.726;10.390;2023-07-29T09:10:53;10.85;;;3.20;;
59607;SDS011;45426;44.726;10.390;2023-07-29T09:13:19;6.68;;;3.30;;
59607;SDS011;45426;44.726;10.390;2023-07-29T09:15:45;4.35;;;2.88;;
59607;SDS011;45426;44.726;10.390;2023-07-29T09:18:11;7.75;;;2.92;;
59607;SDS011;45426;44.726;10.390;2023-07-29T09:20:39;6.28;;;3.10;;
59607;SDS011;45426;44.726;10.390;2023-07-29T09:23:07;8.23;;;2.90;;
59607;SDS011;45426;44.726;10.390;2023-07-29T09:25:34;6.72;;;3.03;;
59607;SDS011;45426;44.726;10.390;2023-07-29T09:27:59;9.00;;;3.03;;
59607;SDS011;45426;44.726;10.390;2023-07-29T09:30:26;7.20;;;3.28;;
59607;SDS011;45426;44.726;10.390;2023-07-29T09:32:58;4.75;;;2.80;;
59607;SDS011;45426;44.726;10.390;2023-07-29T09:35:24;9.43;;;2.95;;
59607;SDS011;45426;44.726;10.390;2023-07-29T09:37:52;6.78;;;2.90;;
59607;SDS011;45426;44.726;10.390;2023-07-29T09:40:18;6.10;;;3.20;;
59607;SDS011;45426;44.726;10.390;2023-07-29T09:42:51;6.18;;;2.78;;
59607;SDS011;45426;44.726;10.390;2023-07-29T09:45:24;5.60;;;2.60;;
59607;SDS011;45426;44.726;10.390;2023-07-29T09:47:54;5.93;;;2.90;;
59607;SDS011;45426;44.726;10.390;2023-07-29T09:50:25;5.78;;;3.03;;
59607;SDS011;45426;44.726;10.390;2023-07-29T09:52:52;6.18;;;2.80;;
59607;SDS011;45426;44.726;10.390;2023-07-29T09:55:20;6.10;;;3.00;;
59607;SDS011;45426;44.726;10.390;2023-07-29T09:57:47;12.50;;;4.35;;
59607;SDS011;45426;44.726;10.390;2023-07-29T10:00:12;20.85;;;6.68;;
59607;SDS011;45426;44.726;10.390;2023-07-29T10:02:39;20.70;;;6.55;;
59607;SDS011;45426;44.726;10.390;2023-07-29T10:05:06;5.38;;;3.05;;
59607;SDS011;45426;44.726;10.390;2023-07-29T10:07:34;8.50;;;3.05;;
59607;SDS011;45426;44.726;10.390;2023-07-29T10:10:01;9.15;;;3.00;;
59607;SDS011;45426;44.726;10.390;2023-07-29T10:12:30;5.78;;;3.10;;
59607;SDS011;45426;44.726;10.390;2023-07-29T10:14:57;7.13;;;3.15;;
59607;SDS011;45426;44.726;10.390;2023-07-29T10:17:25;6.32;;;2.97;;
59607;SDS011;45426;44.726;10.390;2023-07-29T10:19:51;7.75;;;3.13;;
59607;SDS011;45426;44.726;10.390;2023-07-29T10:22:17;5.72;;;3.00;;
59607;SDS011;45426;44.726;10.390;2023-07-29T10:24:45;6.50;;;2.72;;
59607;SDS011;45426;44.726;10.390;2023-07-29T10:27:14;8.60;;;3.38;;
59607;SDS011;45426;44.726;10.390;2023-07-29T10:29:44;13.98;;;3.63;;
59607;SDS011;45426;44.726;10.390;2023-07-29T10:32:10;6.10;;;2.90;;
59607;SDS011;45426;44.726;10.390;2023-07-29T10:34:36;7.30;;;2.83;;
59607;SDS011;45426;44.726;10.390;2023-07-29T10:37:03;6.00;;;3.10;;
59607;SDS011;45426;44.726;10.390;2023-07-29T10:39:37;4.93;;;2.67;;
59607;SDS011;45426;44.726;10.390;2023-07-29T10:42:05;6.22;;;3.10;;
59607;SDS011;45426;44.726;10.390;2023-07-29T10:47:18;5.10;;;2.97;;
59607;SDS011;45426;44.726;10.390;2023-07-29T10:50:16;5.15;;;2.72;;
59607;SDS011;45426;44.726;10.390;2023-07-29T10:52:42;5.03;;;2.72;;
59607;SDS011;45426;44.726;10.390;2023-07-29T10:55:26;5.25;;;2.90;;
59607;SDS011;45426;44.726;10.390;2023-07-29T10:57:52;7.32;;;3.03;;
59607;SDS011;45426;44.726;10.390;2023-07-29T11:00:30;5.85;;;2.85;;
59607;SDS011;45426;44.726;10.390;2023-07-29T11:03:02;6.18;;;2.80;;
59607;SDS011;45426;44.726;10.390;2023-07-29T11:08:21;4.78;;;2.70;;
59607;SDS011;45426;44.726;10.390;2023-07-29T11:11:04;6.68;;;2.95;;
59607;SDS011;45426;44.726;10.390;2023-07-29T11:13:37;7.82;;;2.90;;
59607;SDS011;45426;44.726;10.390;2023-07-29T11:16:03;4.53;;;2.85;;
59607;SDS011;45426;44.726;10.390;2023-07-29T11:18:30;7.13;;;2.97;;
59607;SDS011;45426;44.726;10.390;2023-07-29T11:20:57;4.40;;;2.75;;
59607;SDS011;45426;44.726;10.390;2023-07-29T11:23:27;5.95;;;2.80;;
59607;SDS011;45426;44.726;10.390;2023-07-29T11:25:57;6.13;;;2.80;;
59607;SDS011;45426;44.726;10.390;2023-07-29T11:28:23;5.65;;;2.72;;
59607;SDS011;45426;44.726;10.390;2023-07-29T11:30:49;6.75;;;2.88;;
59607;SDS011;45426;44.726;10.390;2023-07-29T11:33:17;5.40;;;3.20;;
59607;SDS011;45426;44.726;10.390;2023-07-29T11:35:44;7.35;;;3.13;;
59607;SDS011;45426;44.726;10.390;2023-07-29T11:38:14;5.68;;;3.00;;
59607;SDS011;45426;44.726;10.390;2023-07-29T11:40:40;6.97;;;2.75;;
59607;SDS011;45426;44.726;10.390;2023-07-29T11:43:05;6.47;;;2.90;;
59607;SDS011;45426;44.726;10.390;2023-07-29T11:45:31;5.53;;;3.00;;
59607;SDS011;45426;44.726;10.390;2023-07-29T11:47:56;5.05;;;2.83;;
59607;SDS011;45426;44.726;10.390;2023-07-29T11:50:22;6.50;;;2.70;;
59607;SDS011;45426;44.726;10.390;2023-07-29T11:52:47;5.70;;;2.97;;
59607;SDS011;45426;44.726;10.390;2023-07-29T11:55:14;7.50;;;3.25;;
59607;SDS011;45426;44.726;10.390;2023-07-29T11:57:41;5.50;;;2.70;;
59607;SDS011;45426;44.726;10.390;2023-07-29T12:00:08;7.15;;;2.90;;
59607;SDS011;45426;44.726;10.390;2023-07-29T12:02:38;5.35;;;2.90;;
59607;SDS011;45426;44.726;10.390;2023-07-29T12:05:05;5.57;;;2.88;;
59607;SDS011;45426;44.726;10.390;2023-07-29T12:07:32;6.80;;;2.83;;
59607;SDS011;45426;44.726;10.390;2023-07-29T12:10:01;5.40;;;3.00;;
59607;SDS011;45426;44.726;10.390;2023-07-29T12:12:28;7.43;;;2.80;;
59607;SDS011;45426;44.726;10.390;2023-07-29T12:14:54;5.80;;;2.80;;
59607;SDS011;45426;44.726;10.390;2023-07-29T12:17:20;6.60;;;3.00;;
59607;SDS011;45426;44.726;10.390;2023-07-29T12:19:48;6.63;;;3.10;;
59607;SDS011;45426;44.726;10.390;2023-07-29T12:22:17;9.07;;;3.00;;
59607;SDS011;45426;44.726;10.390;2023-07-29T12:24:43;4.22;;;2.90;;
59607;SDS011;45426;44.726;10.390;2023-07-29T12:27:12;7.13;;;3.08;;
59607;SDS011;45426;44.726;10.390;2023-07-29T12:29:42;6.53;;;3.08;;
59607;SDS011;45426;44.726;10.390;2023-07-29T12:32:08;7.63;;;2.90;;
59607;SDS011;45426;44.726;10.390;2023-07-29T12:34:37;6.85;;;2.90;;
59607;SDS011;45426;44.726;10.390;2023-07-29T12:37:04;6.63;;;3.30;;
59607;SDS011;45426;44.726;10.390;2023-07-29T12:39:31;7.22;;;2.83;;
59607;SDS011;45426;44.726;10.390;2023-07-29T12:41:58;6.22;;;3.00;;
59607;SDS011;45426;44.726;10.390;2023-07-29T12:44:25;5.90;;;2.58;;
59607;SDS011;45426;44.726;10.390;2023-07-29T12:46:54;7.43;;;3.00;;
59607;SDS011;45426;44.726;10.390;2023-07-29T12:49:20;6.13;;;3.05;;
59607;SDS011;45426;44.726;10.390;2023-07-29T12:51:45;5.93;;;3.05;;
59607;SDS011;45426;44.726;10.390;2023-07-29T12:54:11;5.40;;;2.90;;
59607;SDS011;45426;44.726;10.390;2023-07-29T12:56:36;6.43;;;3.05;;
59607;SDS011;45426;44.726;10.390;2023-07-29T12:59:02;8.27;;;2.97;;
59607;SDS011;45426;44.726;10.390;2023-07-29T13:01:28;6.28;;;2.90;;
59607;SDS011;45426;44.726;10.390;2023-07-29T13:03:54;5.32;;;2.90;;
59607;SDS011;45426;44.726;10.390;2023-07-29T13:06:21;6.00;;;3.10;;
59607;SDS011;45426;44.726;10.390;2023-07-29T13:08:47;4.63;;;2.67;;
59607;SDS011;45426;44.726;10.390;2023-07-29T13:11:13;6.57;;;3.08;;
59607;SDS011;45426;44.726;10.390;2023-07-29T13:13:41;5.80;;;2.92;;
59607;SDS011;45426;44.726;10.390;2023-07-29T13:16:07;7.03;;;3.20;;
59607;SDS011;45426;44.726;10.390;2023-07-29T13:18:33;6.38;;;3.10;;
59607;SDS011;45426;44.726;10.390;2023-07-29T13:20:59;4.93;;;2.78;;
59607;SDS011;45426;44.726;10.390;2023-07-29T13:23:25;6.88;;;2.90;;
59607;SDS011;45426;44.726;10.390;2023-07-29T13:25:51;5.50;;;2.88;;
59607;SDS011;45426;44.726;10.390;2023-07-29T13:28:16;6.15;;;2.97;;
59607;SDS011;45426;44.726;10.390;2023-07-29T13:30:42;7.03;;;3.00;;
59607;SDS011;45426;44.726;10.390;2023-07-29T13:33:07;6.80;;;2.90;;
59607;SDS011;45426;44.726;10.390;2023-07-29T13:35:33;6.80;;;2.83;;
59607;SDS011;45426;44.726;10.390;2023-07-29T13:37:59;6.32;;;2.90;;
59607;SDS011;45426;44.726;10.390;2023-07-29T13:40:25;4.80;;;3.00;;
59607;SDS011;45426;44.726;10.390;2023-07-29T13:42:50;4.45;;;2.80;;
59607;SDS011;45426;44.726;10.390;2023-07-29T13:45:17;5.50;;;2.92;;
59607;SDS011;45426;44.726;10.390;2023-07-29T13:47:42;6.15;;;2.90;;
59607;SDS011;45426;44.726;10.390;2023-07-29T13:50:08;7.05;;;3.03;;
59607;SDS011;45426;44.726;10.390;2023-07-29T13:52:34;5.38;;;3.17;;
59607;SDS011;45426;44.726;10.390;2023-07-29T13:54:59;6.38;;;3.28;;
59607;SDS011;45426;44.726;10.390;2023-07-29T13:57:25;5.93;;;3.05;;
59607;SDS011;45426;44.726;10.390;2023-07-29T13:59:50;5.43;;;2.88;;
59607;SDS011;45426;44.726;10.390;2023-07-29T14:02:15;5.38;;;3.00;;
59607;SDS011;45426;44.726;10.390;2023-07-29T14:04:41;7.20;;;3.38;;
59607;SDS011;45426;44.726;10.390;2023-07-29T14:07:06;5.10;;;2.95;;
59607;SDS011;45426;44.726;10.390;2023-07-29T14:09:32;4.93;;;2.72;;
59607;SDS011;45426;44.726;10.390;2023-07-29T14:11:57;6.15;;;3.00;;
59607;SDS011;45426;44.726;10.390;2023-07-29T14:14:22;6.18;;;3.03;;
59607;SDS011;45426;44.726;10.390;2023-07-29T14:16:48;7.15;;;3.38;;
59607;SDS011;45426;44.726;10.390;2023-07-29T14:19:14;8.50;;;3.15;;
59607;SDS011;45426;44.726;10.390;2023-07-29T14:21:39;4.97;;;2.90;;
59607;SDS011;45426;44.726;10.390;2023-07-29T14:24:08;5.68;;;3.05;;
59607;SDS011;45426;44.726;10.390;2023-07-29T14:26:33;7.22;;;3.30;;
59607;SDS011;45426;44.726;10.390;2023-07-29T14:28:59;5.18;;;2.80;;
59607;SDS011;45426;44.726;10.390;2023-07-29T14:31:24;8.18;;;2.97;;
59607;SDS011;45426;44.726;10.390;2023-07-29T14:33:50;7.47;;;3.05;;
59607;SDS011;45426;44.726;10.390;2023-07-29T14:36:15;7.80;;;3.10;;
59607;SDS011;45426;44.726;10.390;2023-07-29T14:38:41;5.45;;;3.05;;
59607;SDS011;45426;44.726;10.390;2023-07-29T14:41:07;6.28;;;3.13;;
59607;SDS011;45426;44.726;10.390;2023-07-29T14:43:33;9.20;;;3.20;;
59607;SDS011;45426;44.726;10.390;2023-07-29T14:45:59;6.03;;;3.08;;
59607;SDS011;45426;44.726;10.390;2023-07-29T14:48:24;6.22;;;3.00;;
59607;SDS011;45426;44.726;10.390;2023-07-29T14:50:50;5.55;;;2.95;;